Time;durP1;ratioP1;P1;durP2;ratioP2;P2;SDS_P1;SDS_P2;PMS_P1;PMS_P2;Temp;Humidity;BMP_temperature;BMP_pressure;BME280_temperature;BME280_humidity;BME280_pressure;Samples;Min_cycle;Max_cycle;Signal;HPM_P1;HPM_P2
2022/12/08 00:18:07;;;;;;;4.88;1.00;;;4.30;99.90;;;;;;20675966;28;21870;-42
2022/12/08 00:28:08;;;;;;;7.72;2.08;;;4.30;99.90;;;;;;20675507;28;20171;-43
2022/12/08 00:38:09;;;;;;;3.25;1.00;;;4.20;99.90;;;;;;20665642;28;20053;-42
2022/12/08 00:48:10;;;;;;;1.92;1.00;;;4.20;99.90;;;;;;20668260;28;20104;-43
2022/12/08 00:58:11;;;;;;;3.50;1.23;;;4.10;99.90;;;;;;20668409;28;20065;-43
2022/12/08 01:08:12;;;;;;;1.83;0.90;;;4.20;99.90;;;;;;20678863;28;20054;-42
2022/12/08 01:18:13;;;;;;;1.10;0.17;;;4.10;99.90;;;;;;20674263;28;20046;-42
2022/12/08 01:28:14;;;;;;;2.22;0.88;;;4.00;99.90;;;;;;20636311;28;20047;-43
2022/12/08 01:38:16;;;;;;;0.50;0.25;;;3.90;99.90;;;;;;20600198;28;20046;-43
2022/12/08 01:48:22;;;;;;;4.22;1.08;;;3.90;99.90;;;;;;20587637;28;20096;-43
2022/12/08 01:58:33;;;;;;;2.37;1.40;;;3.90;99.90;;;;;;20585685;28;20471;-43
2022/12/08 02:08:36;;;;;;;2.78;1.30;;;3.90;99.90;;;;;;20598315;28;20070;-43
2022/12/08 02:19:05;;;;;;;5.32;2.00;;;4.00;99.90;;;;;;20603825;28;20030;-43
2022/12/08 02:29:35;;;;;;;5.70;2.17;;;4.10;99.90;;;;;;20588945;28;21931;-43
2022/12/08 02:40:04;;;;;;;2.78;1.60;;;4.10;99.90;;;;;;20607353;28;20050;-43
2022/12/08 02:50:05;;;;;;;2.85;1.27;;;4.10;99.90;;;;;;20599307;28;22620;-43
2022/12/08 03:00:15;;;;;;;1.48;1.10;;;4.10;99.90;;;;;;20608065;28;20450;-43
2022/12/08 03:10:35;;;;;;;1.85;0.20;;;4.10;99.90;;;;;;20603238;28;20085;-44
2022/12/08 03:20:39;;;;;;;1.20;0.28;;;4.20;99.90;;;;;;20590559;28;20049;-43
2022/12/08 03:30:44;;;;;;;0.63;0.10;;;4.10;99.90;;;;;;20609802;28;20049;-44
2022/12/08 03:41:17;;;;;;;0.32;0.10;;;4.00;99.90;;;;;;20592958;28;20887;-44
2022/12/08 03:51:09;;;;;;;0.28;0.03;;;3.90;99.90;;;;;;20609638;28;20735;-44
2022/12/08 04:01:11;;;;;;;0.82;0.15;;;3.80;99.90;;;;;;20623455;28;20046;-44
2022/12/08 04:11:12;;;;;;;1.27;0.50;;;3.80;99.90;;;;;;20626724;28;20135;-43
2022/12/08 04:21:14;;;;;;;0.90;0.22;;;3.90;99.90;;;;;;20617252;28;20122;-43
2022/12/08 04:31:15;;;;;;;1.27;0.63;;;4.00;99.90;;;;;;20624028;28;20764;-43
2022/12/08 04:41:16;;;;;;;1.90;0.28;;;3.80;99.90;;;;;;20622738;28;20513;-44
2022/12/08 04:51:18;;;;;;;1.85;0.38;;;3.80;99.90;;;;;;20610272;28;20463;-44
2022/12/08 05:01:19;;;;;;;1.55;0.20;;;4.00;99.90;;;;;;20620007;28;20070;-43
2022/12/08 05:11:20;;;;;;;0.20;0.00;;;4.00;99.90;;;;;;20624357;28;20786;-44
2022/12/08 05:21:21;;;;;;;2.88;1.27;;;3.90;99.90;;;;;;20621404;28;20042;-44
2022/12/08 05:31:23;;;;;;;5.90;2.88;;;3.70;99.90;;;;;;20642020;28;20057;-43
2022/12/08 05:41:24;;;;;;;3.50;1.83;;;3.60;99.90;;;;;;20647413;28;20082;-43
2022/12/08 05:51:26;;;;;;;3.28;1.70;;;3.50;99.90;;;;;;20623559;28;20128;-43
2022/12/08 06:01:30;;;;;;;4.53;1.50;;;3.50;99.90;;;;;;20630446;28;20054;-43
2022/12/08 06:11:31;;;;;;;1.40;0.57;;;3.20;99.90;;;;;;20632354;28;20078;-42
2022/12/08 06:21:33;;;;;;;1.10;0.45;;;3.30;99.90;;;;;;20633610;28;20092;-42
2022/12/08 06:31:34;;;;;;;0.47;0.10;;;3.30;99.90;;;;;;20575666;28;20144;-42
2022/12/08 06:42:42;;;;;;;0.10;0.00;;;3.20;99.90;;;;;;20585226;28;20046;-42
2022/12/08 06:51:55;;;;;;;0.30;0.00;;;3.20;99.90;;;;;;20669896;28;20942;-43
2022/12/08 07:01:57;;;;;;;0.00;0.00;;;3.10;99.90;;;;;;20658484;28;20050;-42
2022/12/08 07:11:58;;;;;;;0.40;0.15;;;3.10;99.90;;;;;;20648284;28;20183;-43
2022/12/08 07:21:59;;;;;;;0.15;0.08;;;3.00;99.90;;;;;;20674452;28;20045;-42
2022/12/08 07:32:00;;;;;;;1.63;0.65;;;2.90;99.90;;;;;;20645105;28;20124;-42
2022/12/08 07:42:01;;;;;;;1.95;0.63;;;2.90;99.90;;;;;;20644471;28;20046;-42
2022/12/08 07:52:02;;;;;;;1.58;0.55;;;2.90;99.90;;;;;;20648075;28;20303;-42
2022/12/08 08:02:03;;;;;;;0.20;0.10;;;2.80;99.90;;;;;;20652903;28;20160;-42
2022/12/08 08:12:04;;;;;;;0.68;0.30;;;2.80;99.90;;;;;;20666190;28;20037;-43
2022/12/08 08:22:05;;;;;;;1.45;0.43;;;2.90;99.90;;;;;;20660800;28;20549;-42
2022/12/08 08:32:06;;;;;;;0.75;0.40;;;2.90;99.90;;;;;;20665863;28;20528;-42
2022/12/08 08:42:07;;;;;;;1.08;0.60;;;3.00;99.90;;;;;;20665726;28;20050;-43
2022/12/08 08:52:09;;;;;;;1.13;0.25;;;3.00;99.90;;;;;;20665765;28;20133;-42
2022/12/08 09:02:18;;;;;;;1.15;0.30;;;3.10;99.90;;;;;;20658965;28;20469;-43
2022/12/08 09:12:19;;;;;;;0.45;0.13;;;3.10;99.90;;;;;;20663896;28;20644;-42
2022/12/08 09:22:20;;;;;;;0.20;0.00;;;3.10;99.90;;;;;;20686022;28;20093;-43
2022/12/08 09:32:21;;;;;;;1.35;0.43;;;3.10;99.90;;;;;;20695245;28;20537;-42
2022/12/08 09:42:42;;;;;;;1.15;0.20;;;3.10;99.90;;;;;;20694987;28;20513;-42
2022/12/08 09:52:56;;;;;;;1.02;0.40;;;3.20;99.90;;;;;;20658632;28;20526;-42
2022/12/08 10:02:59;;;;;;;0.43;0.20;;;3.20;99.90;;;;;;20704734;28;20072;-42
2022/12/08 10:13:19;;;;;;;7.32;2.03;;;3.40;99.90;;;;;;20691804;28;20072;-42
2022/12/08 10:23:28;;;;;;;3.85;1.20;;;3.40;99.90;;;;;;20710611;28;20130;-42
2022/12/08 10:33:31;;;;;;;2.28;0.75;;;3.40;99.90;;;;;;20702352;28;20164;-42
2022/12/08 10:43:33;;;;;;;1.88;1.13;;;3.30;99.90;;;;;;20681581;28;20182;-41
2022/12/08 10:53:45;;;;;;;1.85;0.75;;;3.30;99.90;;;;;;20688207;28;20521;-42
2022/12/08 11:03:52;;;;;;;2.53;0.60;;;3.30;99.90;;;;;;20673992;28;20870;-41
2022/12/08 11:13:53;;;;;;;4.28;0.98;;;3.20;99.90;;;;;;20630241;28;20529;-41
2022/12/08 11:23:54;;;;;;;3.75;0.90;;;3.20;99.90;;;;;;20601186;28;20886;-42
2022/12/08 11:33:55;;;;;;;3.22;1.23;;;3.20;99.90;;;;;;20588792;28;20050;-43
2022/12/08 11:44:29;;;;;;;2.15;0.90;;;3.40;99.90;;;;;;20594974;28;20128;-43
2022/12/08 11:54:33;;;;;;;4.47;1.83;;;3.50;99.90;;;;;;20591289;28;20074;-43
2022/12/08 12:04:40;;;;;;;2.95;1.35;;;3.50;99.90;;;;;;20599087;28;20078;-42
2022/12/08 12:15:15;;;;;;;2.92;1.23;;;3.40;99.90;;;;;;20590066;28;20485;-44
2022/12/08 12:25:19;;;;;;;2.20;1.23;;;3.60;99.90;;;;;;20641727;28;20547;-43
2022/12/08 12:35:33;;;;;;;2.65;1.40;;;3.90;99.90;;;;;;20667818;28;20176;-43
2022/12/08 12:45:42;;;;;;;2.22;1.15;;;4.30;99.90;;;;;;20655186;28;20087;-42
2022/12/08 12:55:53;;;;;;;1.90;0.60;;;4.80;99.90;;;;;;20600817;28;20117;-43
2022/12/08 13:05:54;;;;;;;2.42;1.38;;;5.00;99.90;;;;;;20588114;28;21271;-43
2022/12/08 13:16:19;;;;;;;3.10;0.73;;;4.70;99.90;;;;;;20593626;28;20558;-42
2022/12/08 13:26:25;;;;;;;2.33;1.08;;;4.40;99.90;;;;;;20632552;28;20073;-43
2022/12/08 13:36:37;;;;;;;2.27;1.40;;;4.40;99.90;;;;;;20684529;28;20084;-43
2022/12/08 13:46:44;;;;;;;2.85;1.23;;;4.60;99.90;;;;;;20638404;28;20160;-42
2022/12/08 13:56:47;;;;;;;1.07;0.43;;;4.50;99.90;;;;;;20611818;28;20852;-43
2022/12/08 14:06:51;;;;;;;9.63;2.63;;;4.30;99.90;;;;;;20613012;28;20136;-43
2022/12/08 14:16:55;;;;;;;1.80;0.70;;;4.10;99.90;;;;;;20608777;28;20566;-42
2022/12/08 14:27:09;;;;;;;3.33;1.58;;;4.00;99.90;;;;;;20599115;28;20639;-43
2022/12/08 14:37:13;;;;;;;7.40;3.45;;;3.90;99.90;;;;;;20622534;28;20118;-43
2022/12/08 14:47:19;;;;;;;2.47;1.10;;;3.80;99.90;;;;;;20617101;28;20066;-42
2022/12/08 14:57:21;;;;;;;8.17;2.90;;;3.80;99.90;;;;;;20622334;28;20066;-43
2022/12/08 15:07:29;;;;;;;1.80;0.90;;;3.60;99.90;;;;;;20599446;28;20549;-42
2022/12/08 15:17:40;;;;;;;1.60;0.80;;;3.50;99.90;;;;;;20633040;28;20499;-42
2022/12/08 15:27:41;;;;;;;3.33;1.15;;;3.40;99.90;;;;;;20622360;28;20081;-43
2022/12/08 15:37:42;;;;;;;2.45;0.98;;;3.40;99.90;;;;;;20657517;28;20043;-42
2022/12/08 15:47:44;;;;;;;1.95;0.90;;;3.30;99.90;;;;;;20665848;28;20054;-43
2022/12/08 15:57:48;;;;;;;2.97;1.35;;;3.20;99.90;;;;;;20641043;28;20061;-43
2022/12/08 16:07:49;;;;;;;1.75;0.85;;;3.30;99.90;;;;;;20601260;28;20691;-43
2022/12/08 16:17:50;;;;;;;2.67;1.52;;;3.30;99.90;;;;;;20603458;28;20093;-43
2022/12/08 16:27:53;;;;;;;2.35;1.00;;;3.00;99.90;;;;;;20606086;28;20042;-42
2022/12/08 16:37:54;;;;;;;1.80;1.08;;;2.90;99.90;;;;;;20607860;28;20442;-43
2022/12/08 16:47:57;;;;;;;2.55;1.25;;;2.80;99.90;;;;;;20600671;28;20054;-42
2022/12/08 16:57:58;;;;;;;3.38;1.20;;;2.60;99.90;;;;;;20607434;28;20035;-42
2022/12/08 17:07:59;;;;;;;1.67;0.90;;;2.50;99.90;;;;;;20593962;28;20094;-43
2022/12/08 17:18:01;;;;;;;1.98;0.80;;;2.50;99.90;;;;;;20547644;28;20125;-42
2022/12/08 17:28:02;;;;;;;2.95;1.90;;;2.50;99.90;;;;;;20599465;28;20050;-43
2022/12/08 17:38:03;;;;;;;4.35;1.73;;;2.50;99.90;;;;;;20593813;28;20231;-42
2022/12/08 17:48:04;;;;;;;2.50;1.25;;;2.50;99.90;;;;;;20590284;28;20042;-43
2022/12/08 17:58:07;;;;;;;4.88;2.30;;;2.50;99.90;;;;;;20591243;28;21324;-42
2022/12/08 18:08:09;;;;;;;5.28;3.22;;;2.50;99.90;;;;;;20590819;28;20078;-42
2022/12/08 18:18:10;;;;;;;6.00;3.03;;;2.50;99.90;;;;;;20583511;28;20217;-43
2022/12/08 18:28:11;;;;;;;3.80;2.28;;;2.50;99.90;;;;;;20569407;28;20097;-42
2022/12/08 18:38:12;;;;;;;3.30;2.00;;;2.50;99.90;;;;;;20587198;28;20133;-42
2022/12/08 18:48:13;;;;;;;3.65;2.35;;;2.50;99.90;;;;;;20583540;28;25524;-42
2022/12/08 18:58:14;;;;;;;3.33;1.70;;;2.60;99.90;;;;;;20610749;28;20046;-42
2022/12/08 19:08:15;;;;;;;5.05;2.72;;;2.50;99.90;;;;;;20624151;28;20055;-42
2022/12/08 19:18:16;;;;;;;3.63;2.05;;;2.40;99.90;;;;;;20609276;28;20041;-42
2022/12/08 19:28:17;;;;;;;5.93;3.17;;;2.40;99.90;;;;;;20608448;28;20429;-42
2022/12/08 19:38:18;;;;;;;4.97;2.88;;;2.40;99.90;;;;;;20616084;28;20548;-42
2022/12/08 19:48:19;;;;;;;4.13;2.78;;;2.50;99.90;;;;;;20596933;28;20198;-43
2022/12/08 19:58:20;;;;;;;5.60;3.40;;;2.60;99.90;;;;;;20619442;28;20049;-43
2022/12/08 20:08:21;;;;;;;7.45;3.95;;;2.70;99.90;;;;;;20634628;28;20070;-43
2022/12/08 20:18:23;;;;;;;5.03;3.67;;;2.70;99.90;;;;;;20610783;28;20034;-42
2022/12/08 20:28:24;;;;;;;10.68;5.20;;;2.80;99.90;;;;;;20604806;28;20177;-42
2022/12/08 20:38:26;;;;;;;10.73;5.63;;;2.80;99.90;;;;;;20586264;28;20046;-43
2022/12/08 20:48:27;;;;;;;6.97;3.60;;;2.80;99.90;;;;;;20587633;28;20050;-42
2022/12/08 20:58:28;;;;;;;8.98;5.32;;;2.80;99.90;;;;;;20584055;28;20069;-43
2022/12/08 21:08:29;;;;;;;9.30;5.00;;;2.80;99.90;;;;;;20594526;28;20479;-43
2022/12/08 21:18:31;;;;;;;8.48;5.20;;;2.50;99.90;;;;;;20603659;28;20516;-42
2022/12/08 21:28:32;;;;;;;6.50;4.47;;;2.40;99.90;;;;;;20596500;28;20096;-42
2022/12/08 21:38:33;;;;;;;11.23;6.22;;;2.40;99.90;;;;;;20597887;28;20051;-43
2022/12/08 21:48:34;;;;;;;9.68;5.95;;;2.30;99.90;;;;;;20605748;28;20568;-43
2022/12/08 21:58:35;;;;;;;12.48;7.63;;;2.10;99.90;;;;;;20609632;28;20481;-43
2022/12/08 22:08:36;;;;;;;14.50;8.75;;;2.10;99.90;;;;;;20611695;28;20129;-42
2022/12/08 22:18:37;;;;;;;14.07;7.70;;;2.10;99.90;;;;;;20615621;28;20541;-43
2022/12/08 22:28:40;;;;;;;26.35;9.52;;;2.10;99.90;;;;;;20598442;28;20643;-43
2022/12/08 22:38:41;;;;;;;20.23;11.30;;;2.20;99.90;;;;;;20574166;28;20619;-43
2022/12/08 22:48:43;;;;;;;19.23;11.30;;;2.20;99.90;;;;;;20579651;28;20082;-43
2022/12/08 22:58:44;;;;;;;18.60;9.48;;;2.30;99.90;;;;;;20582414;28;20450;-43
2022/12/08 23:08:45;;;;;;;17.80;11.10;;;2.20;99.90;;;;;;20572308;28;20933;-42
2022/12/08 23:18:46;;;;;;;13.23;9.38;;;2.30;99.90;;;;;;20585196;28;20495;-43
2022/12/08 23:28:48;;;;;;;17.63;9.80;;;2.20;99.90;;;;;;20571755;28;20082;-42
2022/12/08 23:38:49;;;;;;;24.48;12.55;;;2.20;99.90;;;;;;20561732;28;20134;-42
2022/12/08 23:48:50;;;;;;;28.15;11.10;;;2.10;99.90;;;;;;20563567;28;20073;-43
2022/12/08 23:58:51;;;;;;;21.33;10.40;;;2.10;99.90;;;;;;20585413;28;20120;-43
